sensor_id;sensor_type;location;lat;lon;timestamp;P1;durP1;ratioP1;P2;durP2;ratioP2
5521;SDS011;2783;48.730;8.006;2023-09-30T00:00:05;0.10;;;0.10;;
5521;SDS011;2783;48.730;8.006;2023-09-30T00:02:33;0.20;;;0.20;;
5521;SDS011;2783;48.730;8.006;2023-09-30T00:04:58;0.10;;;0.10;;
5521;SDS011;2783;48.730;8.006;2023-09-30T00:07:24;0.15;;;0.15;;
5521;SDS011;2783;48.730;8.006;2023-09-30T00:09:49;0.10;;;0.10;;
5521;SDS011;2783;48.730;8.006;2023-09-30T00:12:16;0.20;;;0.20;;
5521;SDS011;2783;48.730;8.006;2023-09-30T00:14:42;0.10;;;0.10;;
5521;SDS011;2783;48.730;8.006;2023-09-30T00:17:08;0.10;;;0.10;;
5521;SDS011;2783;48.730;8.006;2023-09-30T00:19:33;0.10;;;0.10;;
5521;SDS011;2783;48.730;8.006;2023-09-30T00:21:59;0.10;;;0.10;;
5521;SDS011;2783;48.730;8.006;2023-09-30T00:24:25;0.20;;;0.20;;
5521;SDS011;2783;48.730;8.006;2023-09-30T00:26:51;0.20;;;0.20;;
5521;SDS011;2783;48.730;8.006;2023-09-30T00:29:16;0.20;;;0.20;;
5521;SDS011;2783;48.730;8.006;2023-09-30T00:31:43;0.20;;;0.20;;
5521;SDS011;2783;48.730;8.006;2023-09-30T00:34:09;0.10;;;0.10;;
5521;SDS011;2783;48.730;8.006;2023-09-30T00:36:35;0.10;;;0.10;;
5521;SDS011;2783;48.730;8.006;2023-09-30T00:39:00;0.20;;;0.20;;
5521;SDS011;2783;48.730;8.006;2023-09-30T00:41:25;0.10;;;0.10;;
5521;SDS011;2783;48.730;8.006;2023-09-30T00:43:51;0.20;;;0.20;;
5521;SDS011;2783;48.730;8.006;2023-09-30T00:46:29;0.10;;;0.10;;
5521;SDS011;2783;48.730;8.006;2023-09-30T00:48:57;0.20;;;0.20;;
5521;SDS011;2783;48.730;8.006;2023-09-30T00:51:23;0.20;;;0.20;;
5521;SDS011;2783;48.730;8.006;2023-09-30T00:53:54;0.20;;;0.20;;
5521;SDS011;2783;48.730;8.006;2023-09-30T00:56:23;0.20;;;0.20;;
5521;SDS011;2783;48.730;8.006;2023-09-30T00:58:51;0.20;;;0.20;;
5521;SDS011;2783;48.730;8.006;2023-09-30T01:01:17;0.20;;;0.20;;
5521;SDS011;2783;48.730;8.006;2023-09-30T01:03:45;0.20;;;0.20;;
5521;SDS011;2783;48.730;8.006;2023-09-30T01:06:11;0.20;;;0.20;;
5521;SDS011;2783;48.730;8.006;2023-09-30T01:08:36;0.20;;;0.20;;
5521;SDS011;2783;48.730;8.006;2023-09-30T01:11:02;0.20;;;0.20;;
5521;SDS011;2783;48.730;8.006;2023-09-30T01:13:34;0.20;;;0.20;;
5521;SDS011;2783;48.730;8.006;2023-09-30T01:16:04;0.20;;;0.20;;
5521;SDS011;2783;48.730;8.006;2023-09-30T01:18:30;0.20;;;0.20;;
5521;SDS011;2783;48.730;8.006;2023-09-30T01:20:55;0.20;;;0.20;;
5521;SDS011;2783;48.730;8.006;2023-09-30T01:23:21;0.20;;;0.20;;
5521;SDS011;2783;48.730;8.006;2023-09-30T01:25:47;0.20;;;0.20;;
5521;SDS011;2783;48.730;8.006;2023-09-30T01:28:12;0.20;;;0.20;;
5521;SDS011;2783;48.730;8.006;2023-09-30T01:30:39;0.20;;;0.20;;
5521;SDS011;2783;48.730;8.006;2023-09-30T01:33:05;0.20;;;0.20;;
5521;SDS011;2783;48.730;8.006;2023-09-30T01:35:32;0.20;;;0.20;;
5521;SDS011;2783;48.730;8.006;2023-09-30T01:37:58;0.20;;;0.20;;
5521;SDS011;2783;48.730;8.006;2023-09-30T01:40:23;0.10;;;0.10;;
5521;SDS011;2783;48.730;8.006;2023-09-30T01:42:49;0.20;;;0.20;;
5521;SDS011;2783;48.730;8.006;2023-09-30T01:45:14;0.20;;;0.20;;
5521;SDS011;2783;48.730;8.006;2023-09-30T01:47:40;0.20;;;0.20;;
5521;SDS011;2783;48.730;8.006;2023-09-30T01:50:05;0.20;;;0.20;;
5521;SDS011;2783;48.730;8.006;2023-09-30T01:52:31;0.20;;;0.20;;
5521;SDS011;2783;48.730;8.006;2023-09-30T01:54:56;0.20;;;0.20;;
5521;SDS011;2783;48.730;8.006;2023-09-30T01:57:22;0.20;;;0.20;;
5521;SDS011;2783;48.730;8.006;2023-09-30T01:59:47;0.15;;;0.15;;
5521;SDS011;2783;48.730;8.006;2023-09-30T02:02:12;0.10;;;0.10;;
5521;SDS011;2783;48.730;8.006;2023-09-30T02:04:38;0.20;;;0.20;;
5521;SDS011;2783;48.730;8.006;2023-09-30T02:07:03;0.20;;;0.20;;
5521;SDS011;2783;48.730;8.006;2023-09-30T02:09:29;0.20;;;0.20;;
5521;SDS011;2783;48.730;8.006;2023-09-30T02:11:54;0.20;;;0.20;;
5521;SDS011;2783;48.730;8.006;2023-09-30T02:14:20;0.20;;;0.20;;
5521;SDS011;2783;48.730;8.006;2023-09-30T02:16:45;0.20;;;0.20;;
5521;SDS011;2783;48.730;8.006;2023-09-30T02:19:11;0.20;;;0.20;;
5521;SDS011;2783;48.730;8.006;2023-09-30T02:21:38;0.20;;;0.20;;
5521;SDS011;2783;48.730;8.006;2023-09-30T02:24:03;0.20;;;0.20;;
5521;SDS011;2783;48.730;8.006;2023-09-30T02:26:31;0.20;;;0.20;;
5521;SDS011;2783;48.730;8.006;2023-09-30T02:28:57;0.20;;;0.20;;
5521;SDS011;2783;48.730;8.006;2023-09-30T02:31:23;0.20;;;0.20;;
5521;SDS011;2783;48.730;8.006;2023-09-30T02:33:49;0.20;;;0.20;;
5521;SDS011;2783;48.730;8.006;2023-09-30T02:36:14;0.20;;;0.20;;
5521;SDS011;2783;48.730;8.006;2023-09-30T02:38:41;0.20;;;0.20;;
5521;SDS011;2783;48.730;8.006;2023-09-30T02:41:06;0.20;;;0.20;;
5521;SDS011;2783;48.730;8.006;2023-09-30T02:43:32;0.20;;;0.20;;
5521;SDS011;2783;48.730;8.006;2023-09-30T02:45:58;0.20;;;0.20;;
5521;SDS011;2783;48.730;8.006;2023-09-30T02:48:23;0.20;;;0.20;;
5521;SDS011;2783;48.730;8.006;2023-09-30T02:50:49;0.20;;;0.20;;
5521;SDS011;2783;48.730;8.006;2023-09-30T02:53:14;0.20;;;0.20;;
5521;SDS011;2783;48.730;8.006;2023-09-30T02:55:40;0.20;;;0.20;;
5521;SDS011;2783;48.730;8.006;2023-09-30T02:58:06;0.13;;;0.13;;
5521;SDS011;2783;48.730;8.006;2023-09-30T03:00:33;0.20;;;0.20;;
5521;SDS011;2783;48.730;8.006;2023-09-30T03:03:00;0.20;;;0.20;;
5521;SDS011;2783;48.730;8.006;2023-09-30T03:05:29;0.20;;;0.20;;
5521;SDS011;2783;48.730;8.006;2023-09-30T03:07:58;0.20;;;0.20;;
5521;SDS011;2783;48.730;8.006;2023-09-30T03:10:24;0.20;;;0.20;;
5521;SDS011;2783;48.730;8.006;2023-09-30T03:12:54;0.20;;;0.20;;
5521;SDS011;2783;48.730;8.006;2023-09-30T03:15:28;0.20;;;0.20;;
5521;SDS011;2783;48.730;8.006;2023-09-30T03:17:57;0.17;;;0.17;;
5521;SDS011;2783;48.730;8.006;2023-09-30T03:20:24;0.20;;;0.20;;
5521;SDS011;2783;48.730;8.006;2023-09-30T03:22:50;0.20;;;0.20;;
5521;SDS011;2783;48.730;8.006;2023-09-30T03:25:17;0.20;;;0.20;;
5521;SDS011;2783;48.730;8.006;2023-09-30T03:27:44;0.20;;;0.20;;
5521;SDS011;2783;48.730;8.006;2023-09-30T03:30:16;0.20;;;0.20;;
5521;SDS011;2783;48.730;8.006;2023-09-30T03:32:42;0.20;;;0.20;;
5521;SDS011;2783;48.730;8.006;2023-09-30T03:35:08;0.20;;;0.20;;
5521;SDS011;2783;48.730;8.006;2023-09-30T03:37:44;0.20;;;0.20;;
5521;SDS011;2783;48.730;8.006;2023-09-30T03:40:10;0.20;;;0.20;;
5521;SDS011;2783;48.730;8.006;2023-09-30T03:42:43;0.20;;;0.20;;
5521;SDS011;2783;48.730;8.006;2023-09-30T03:45:10;0.20;;;0.20;;
5521;SDS011;2783;48.730;8.006;2023-09-30T03:47:36;0.20;;;0.20;;
5521;SDS011;2783;48.730;8.006;2023-09-30T03:50:02;0.20;;;0.20;;
5521;SDS011;2783;48.730;8.006;2023-09-30T03:52:29;0.20;;;0.20;;
5521;SDS011;2783;48.730;8.006;2023-09-30T03:54:59;0.20;;;0.20;;
5521;SDS011;2783;48.730;8.006;2023-09-30T03:57:30;0.20;;;0.20;;
5521;SDS011;2783;48.730;8.006;2023-09-30T03:59:57;0.20;;;0.20;;
5521;SDS011;2783;48.730;8.006;2023-09-30T04:02:22;0.20;;;0.20;;
5521;SDS011;2783;48.730;8.006;2023-09-30T04:04:47;0.20;;;0.20;;
5521;SDS011;2783;48.730;8.006;2023-09-30T04:07:15;0.20;;;0.20;;
5521;SDS011;2783;48.730;8.006;2023-09-30T04:09:41;0.20;;;0.20;;
5521;SDS011;2783;48.730;8.006;2023-09-30T04:12:07;0.20;;;0.20;;
5521;SDS011;2783;48.730;8.006;2023-09-30T04:14:33;0.20;;;0.20;;
5521;SDS011;2783;48.730;8.006;2023-09-30T04:16:58;0.20;;;0.20;;
5521;SDS011;2783;48.730;8.006;2023-09-30T04:19:23;0.17;;;0.17;;
5521;SDS011;2783;48.730;8.006;2023-09-30T04:21:49;0.20;;;0.20;;
5521;SDS011;2783;48.730;8.006;2023-09-30T04:24:14;0.20;;;0.20;;
5521;SDS011;2783;48.730;8.006;2023-09-30T04:26:39;0.20;;;0.20;;
5521;SDS011;2783;48.730;8.006;2023-09-30T04:29:06;0.20;;;0.20;;
5521;SDS011;2783;48.730;8.006;2023-09-30T04:31:36;0.20;;;0.20;;
5521;SDS011;2783;48.730;8.006;2023-09-30T04:34:04;0.28;;;0.28;;
5521;SDS011;2783;48.730;8.006;2023-09-30T04:36:30;0.20;;;0.20;;
5521;SDS011;2783;48.730;8.006;2023-09-30T04:38:55;0.20;;;0.20;;
5521;SDS011;2783;48.730;8.006;2023-09-30T04:41:21;0.20;;;0.20;;
5521;SDS011;2783;48.730;8.006;2023-09-30T04:43:46;0.20;;;0.20;;
5521;SDS011;2783;48.730;8.006;2023-09-30T04:46:13;0.20;;;0.20;;
5521;SDS011;2783;48.730;8.006;2023-09-30T04:48:38;0.20;;;0.20;;
5521;SDS011;2783;48.730;8.006;2023-09-30T04:51:07;0.20;;;0.20;;
5521;SDS011;2783;48.730;8.006;2023-09-30T04:53:33;0.25;;;0.25;;
5521;SDS011;2783;48.730;8.006;2023-09-30T04:55:59;0.20;;;0.20;;
5521;SDS011;2783;48.730;8.006;2023-09-30T04:58:24;0.20;;;0.20;;
5521;SDS011;2783;48.730;8.006;2023-09-30T05:00:50;0.20;;;0.20;;
5521;SDS011;2783;48.730;8.006;2023-09-30T05:03:15;0.17;;;0.17;;
5521;SDS011;2783;48.730;8.006;2023-09-30T05:05:41;0.20;;;0.20;;
5521;SDS011;2783;48.730;8.006;2023-09-30T05:08:06;0.20;;;0.20;;
5521;SDS011;2783;48.730;8.006;2023-09-30T05:10:33;0.20;;;0.20;;
5521;SDS011;2783;48.730;8.006;2023-09-30T05:12:58;0.20;;;0.20;;
5521;SDS011;2783;48.730;8.006;2023-09-30T05:15:24;0.20;;;0.20;;
5521;SDS011;2783;48.730;8.006;2023-09-30T05:17:50;0.20;;;0.20;;
5521;SDS011;2783;48.730;8.006;2023-09-30T05:20:16;0.20;;;0.20;;
5521;SDS011;2783;48.730;8.006;2023-09-30T05:22:45;0.20;;;0.20;;
5521;SDS011;2783;48.730;8.006;2023-09-30T05:25:14;0.20;;;0.20;;
5521;SDS011;2783;48.730;8.006;2023-09-30T05:27:43;0.20;;;0.20;;
5521;SDS011;2783;48.730;8.006;2023-09-30T05:30:10;0.20;;;0.20;;
5521;SDS011;2783;48.730;8.006;2023-09-30T05:32:36;0.13;;;0.13;;
5521;SDS011;2783;48.730;8.006;2023-09-30T05:35:05;0.20;;;0.20;;
5521;SDS011;2783;48.730;8.006;2023-09-30T05:37:37;0.20;;;0.20;;
5521;SDS011;2783;48.730;8.006;2023-09-30T05:40:06;0.20;;;0.20;;
5521;SDS011;2783;48.730;8.006;2023-09-30T05:42:41;0.20;;;0.20;;
5521;SDS011;2783;48.730;8.006;2023-09-30T05:45:09;0.20;;;0.20;;
5521;SDS011;2783;48.730;8.006;2023-09-30T05:47:37;0.20;;;0.20;;
5521;SDS011;2783;48.730;8.006;2023-09-30T05:50:03;0.20;;;0.20;;
5521;SDS011;2783;48.730;8.006;2023-09-30T05:52:29;0.20;;;0.20;;
5521;SDS011;2783;48.730;8.006;2023-09-30T05:54:54;0.20;;;0.20;;
5521;SDS011;2783;48.730;8.006;2023-09-30T05:57:19;0.20;;;0.20;;
5521;SDS011;2783;48.730;8.006;2023-09-30T05:59:45;0.20;;;0.20;;
5521;SDS011;2783;48.730;8.006;2023-09-30T06:02:11;0.20;;;0.20;;
5521;SDS011;2783;48.730;8.006;2023-09-30T06:04:37;0.20;;;0.20;;
5521;SDS011;2783;48.730;8.006;2023-09-30T06:07:02;0.20;;;0.20;;
5521;SDS011;2783;48.730;8.006;2023-09-30T06:09:28;0.20;;;0.20;;
5521;SDS011;2783;48.730;8.006;2023-09-30T06:11:55;0.20;;;0.20;;
5521;SDS011;2783;48.730;8.006;2023-09-30T06:14:21;0.22;;;0.22;;
5521;SDS011;2783;48.730;8.006;2023-09-30T06:16:46;0.20;;;0.20;;
5521;SDS011;2783;48.730;8.006;2023-09-30T06:19:12;0.20;;;0.20;;
5521;SDS011;2783;48.730;8.006;2023-09-30T06:21:38;0.22;;;0.22;;
5521;SDS011;2783;48.730;8.006;2023-09-30T06:24:04;0.28;;;0.28;;
5521;SDS011;2783;48.730;8.006;2023-09-30T06:26:30;0.20;;;0.20;;
5521;SDS011;2783;48.730;8.006;2023-09-30T06:28:56;0.20;;;0.20;;
5521;SDS011;2783;48.730;8.006;2023-09-30T06:31:22;0.20;;;0.20;;
5521;SDS011;2783;48.730;8.006;2023-09-30T06:33:48;0.20;;;0.20;;
5521;SDS011;2783;48.730;8.006;2023-09-30T06:36:13;0.20;;;0.20;;
5521;SDS011;2783;48.730;8.006;2023-09-30T06:38:39;0.20;;;0.20;;
5521;SDS011;2783;48.730;8.006;2023-09-30T06:41:07;0.20;;;0.20;;
5521;SDS011;2783;48.730;8.006;2023-09-30T06:43:33;0.20;;;0.20;;
5521;SDS011;2783;48.730;8.006;2023-09-30T06:46:04;0.20;;;0.20;;
5521;SDS011;2783;48.730;8.006;2023-09-30T06:48:32;0.20;;;0.20;;
5521;SDS011;2783;48.730;8.006;2023-09-30T06:50:58;0.20;;;0.20;;
5521;SDS011;2783;48.730;8.006;2023-09-30T06:53:24;0.10;;;0.10;;
5521;SDS011;2783;48.730;8.006;2023-09-30T06:55:49;0.20;;;0.20;;
5521;SDS011;2783;48.730;8.006;2023-09-30T06:58:16;0.20;;;0.20;;
5521;SDS011;2783;48.730;8.006;2023-09-30T07:00:46;0.20;;;0.20;;
5521;SDS011;2783;48.730;8.006;2023-09-30T07:03:16;0.20;;;0.20;;
5521;SDS011;2783;48.730;8.006;2023-09-30T07:05:42;0.20;;;0.20;;
5521;SDS011;2783;48.730;8.006;2023-09-30T07:08:07;0.20;;;0.20;;
5521;SDS011;2783;48.730;8.006;2023-09-30T07:10:33;0.20;;;0.20;;
5521;SDS011;2783;48.730;8.006;2023-09-30T07:13:01;0.10;;;0.10;;
5521;SDS011;2783;48.730;8.006;2023-09-30T07:15:27;0.20;;;0.20;;
5521;SDS011;2783;48.730;8.006;2023-09-30T07:17:52;0.20;;;0.20;;
5521;SDS011;2783;48.730;8.006;2023-09-30T07:20:18;0.10;;;0.10;;
5521;SDS011;2783;48.730;8.006;2023-09-30T07:22:44;0.10;;;0.10;;
5521;SDS011;2783;48.730;8.006;2023-09-30T07:25:10;0.10;;;0.10;;
5521;SDS011;2783;48.730;8.006;2023-09-30T07:27:35;0.10;;;0.10;;
5521;SDS011;2783;48.730;8.006;2023-09-30T07:30:01;0.10;;;0.10;;
5521;SDS011;2783;48.730;8.006;2023-09-30T07:32:27;0.10;;;0.10;;
5521;SDS011;2783;48.730;8.006;2023-09-30T07:34:54;0.10;;;0.10;;
5521;SDS011;2783;48.730;8.006;2023-09-30T07:37:20;0.10;;;0.10;;
5521;SDS011;2783;48.730;8.006;2023-09-30T07:39:45;0.10;;;0.10;;
5521;SDS011;2783;48.730;8.006;2023-09-30T07:42:11;0.10;;;0.10;;
5521;SDS011;2783;48.730;8.006;2023-09-30T07:44:37;0.10;;;0.10;;
5521;SDS011;2783;48.730;8.006;2023-09-30T07:47:03;0.20;;;0.20;;
5521;SDS011;2783;48.730;8.006;2023-09-30T07:49:31;0.17;;;0.17;;
5521;SDS011;2783;48.730;8.006;2023-09-30T07:51:57;0.10;;;0.10;;
5521;SDS011;2783;48.730;8.006;2023-09-30T07:54:23;0.10;;;0.10;;
5521;SDS011;2783;48.730;8.006;2023-09-30T07:56:48;0.10;;;0.10;;
5521;SDS011;2783;48.730;8.006;2023-09-30T07:59:14;0.10;;;0.10;;
5521;SDS011;2783;48.730;8.006;2023-09-30T08:01:40;0.10;;;0.10;;
5521;SDS011;2783;48.730;8.006;2023-09-30T08:04:06;0.10;;;0.10;;
5521;SDS011;2783;48.730;8.006;2023-09-30T08:06:32;0.10;;;0.10;;
5521;SDS011;2783;48.730;8.006;2023-09-30T08:08:57;0.10;;;0.10;;
5521;SDS011;2783;48.730;8.006;2023-09-30T08:11:23;0.10;;;0.10;;
5521;SDS011;2783;48.730;8.006;2023-09-30T08:13:52;0.10;;;0.10;;
5521;SDS011;2783;48.730;8.006;2023-09-30T08:16:18;0.10;;;0.10;;
5521;SDS011;2783;48.730;8.006;2023-09-30T08:18:44;0.10;;;0.10;;
5521;SDS011;2783;48.730;8.006;2023-09-30T08:21:09;0.10;;;0.10;;
5521;SDS011;2783;48.730;8.006;2023-09-30T08:23:36;0.10;;;0.10;;
5521;SDS011;2783;48.730;8.006;2023-09-30T08:26:01;0.10;;;0.10;;
5521;SDS011;2783;48.730;8.006;2023-09-30T08:28:28;0.10;;;0.10;;
5521;SDS011;2783;48.730;8.006;2023-09-30T08:30:53;0.10;;;0.10;;
5521;SDS011;2783;48.730;8.006;2023-09-30T08:33:24;0.10;;;0.10;;
5521;SDS011;2783;48.730;8.006;2023-09-30T08:35:51;0.10;;;0.10;;
5521;SDS011;2783;48.730;8.006;2023-09-30T08:38:16;0.10;;;0.10;;
5521;SDS011;2783;48.730;8.006;2023-09-30T08:40:43;0.10;;;0.10;;
5521;SDS011;2783;48.730;8.006;2023-09-30T08:43:09;0.10;;;0.10;;
5521;SDS011;2783;48.730;8.006;2023-09-30T08:45:36;0.10;;;0.10;;
5521;SDS011;2783;48.730;8.006;2023-09-30T08:48:07;0.10;;;0.10;;
5521;SDS011;2783;48.730;8.006;2023-09-30T08:50:33;0.10;;;0.10;;
5521;SDS011;2783;48.730;8.006;2023-09-30T08:53:00;0.10;;;0.10;;
5521;SDS011;2783;48.730;8.006;2023-09-30T08:55:28;0.10;;;0.10;;
5521;SDS011;2783;48.730;8.006;2023-09-30T08:57:54;0.10;;;0.10;;
5521;SDS011;2783;48.730;8.006;2023-09-30T09:00:22;0.10;;;0.10;;
5521;SDS011;2783;48.730;8.006;2023-09-30T09:02:47;0.10;;;0.10;;
5521;SDS011;2783;48.730;8.006;2023-09-30T09:05:15;0.10;;;0.10;;
5521;SDS011;2783;48.730;8.006;2023-09-30T09:07:41;0.00;;;0.00;;
5521;SDS011;2783;48.730;8.006;2023-09-30T09:12:35;0.05;;;0.05;;
5521;SDS011;2783;48.730;8.006;2023-09-30T09:15:04;0.00;;;0.00;;
5521;SDS011;2783;48.730;8.006;2023-09-30T09:17:41;0.00;;;0.00;;
5521;SDS011;2783;48.730;8.006;2023-09-30T09:20:08;0.00;;;0.00;;
5521;SDS011;2783;48.730;8.006;2023-09-30T09:22:45;0.00;;;0.00;;
5521;SDS011;2783;48.730;8.006;2023-09-30T09:25:12;0.00;;;0.00;;
5521;SDS011;2783;48.730;8.006;2023-09-30T09:27:37;0.00;;;0.00;;
5521;SDS011;2783;48.730;8.006;2023-09-30T09:32:54;0.00;;;0.00;;
5521;SDS011;2783;48.730;8.006;2023-09-30T09:35:26;0.00;;;0.00;;
5521;SDS011;2783;48.730;8.006;2023-09-30T09:38:07;0.00;;;0.00;;
5521;SDS011;2783;48.730;8.006;2023-09-30T09:40:34;0.00;;;0.00;;
5521;SDS011;2783;48.730;8.006;2023-09-30T09:43:00;0.00;;;0.00;;
5521;SDS011;2783;48.730;8.006;2023-09-30T09:45:30;0.00;;;0.00;;
5521;SDS011;2783;48.730;8.006;2023-09-30T09:47:58;0.00;;;0.00;;
5521;SDS011;2783;48.730;8.006;2023-09-30T09:50:24;0.00;;;0.00;;
5521;SDS011;2783;48.730;8.006;2023-09-30T09:52:52;0.00;;;0.00;;
5521;SDS011;2783;48.730;8.006;2023-09-30T09:55:24;0.00;;;0.00;;
5521;SDS011;2783;48.730;8.006;2023-09-30T09:57:51;0.00;;;0.00;;
5521;SDS011;2783;48.730;8.006;2023-09-30T10:00:20;0.00;;;0.00;;
5521;SDS011;2783;48.730;8.006;2023-09-30T10:02:47;0.00;;;0.00;;
5521;SDS011;2783;48.730;8.006;2023-09-30T10:05:14;0.00;;;0.00;;
5521;SDS011;2783;48.730;8.006;2023-09-30T10:07:58;0.00;;;0.00;;
5521;SDS011;2783;48.730;8.006;2023-09-30T10:10:28;0.00;;;0.00;;
5521;SDS011;2783;48.730;8.006;2023-09-30T10:12:54;0.00;;;0.00;;
5521;SDS011;2783;48.730;8.006;2023-09-30T10:18:00;0.00;;;0.00;;
5521;SDS011;2783;48.730;8.006;2023-09-30T10:20:34;0.00;;;0.00;;
5521;SDS011;2783;48.730;8.006;2023-09-30T10:25:48;0.00;;;0.00;;
5521;SDS011;2783;48.730;8.006;2023-09-30T10:28:32;0.00;;;0.00;;
5521;SDS011;2783;48.730;8.006;2023-09-30T10:31:20;0.00;;;0.00;;
5521;SDS011;2783;48.730;8.006;2023-09-30T10:36:33;0.00;;;0.00;;
5521;SDS011;2783;48.730;8.006;2023-09-30T10:39:05;0.00;;;0.00;;
5521;SDS011;2783;48.730;8.006;2023-09-30T10:44:48;0.00;;;0.00;;
5521;SDS011;2783;48.730;8.006;2023-09-30T10:46:57;0.00;;;0.00;;
5521;SDS011;2783;48.730;8.006;2023-09-30T10:51:52;0.00;;;0.00;;
5521;SDS011;2783;48.730;8.006;2023-09-30T10:54:23;0.00;;;0.00;;
5521;SDS011;2783;48.730;8.006;2023-09-30T10:56:50;0.00;;;0.00;;
5521;SDS011;2783;48.730;8.006;2023-09-30T10:59:19;0.00;;;0.00;;
5521;SDS011;2783;48.730;8.006;2023-09-30T11:01:45;0.00;;;0.00;;
5521;SDS011;2783;48.730;8.006;2023-09-30T11:04:11;0.00;;;0.00;;
5521;SDS011;2783;48.730;8.006;2023-09-30T11:06:39;0.00;;;0.00;;
5521;SDS011;2783;48.730;8.006;2023-09-30T11:09:05;0.00;;;0.00;;
5521;SDS011;2783;48.730;8.006;2023-09-30T11:11:40;0.00;;;0.00;;
5521;SDS011;2783;48.730;8.006;2023-09-30T11:14:18;0.00;;;0.00;;
5521;SDS011;2783;48.730;8.006;2023-09-30T11:16:51;0.00;;;0.00;;
5521;SDS011;2783;48.730;8.006;2023-09-30T11:19:18;0.00;;;0.00;;
5521;SDS011;2783;48.730;8.006;2023-09-30T11:21:46;0.00;;;0.00;;
5521;SDS011;2783;48.730;8.006;2023-09-30T11:24:13;0.00;;;0.00;;
5521;SDS011;2783;48.730;8.006;2023-09-30T11:26:39;0.00;;;0.00;;
5521;SDS011;2783;48.730;8.006;2023-09-30T11:29:12;0.00;;;0.00;;
5521;SDS011;2783;48.730;8.006;2023-09-30T11:31:41;0.00;;;0.00;;
5521;SDS011;2783;48.730;8.006;2023-09-30T11:34:10;0.00;;;0.00;;
5521;SDS011;2783;48.730;8.006;2023-09-30T11:36:52;0.00;;;0.00;;
5521;SDS011;2783;48.730;8.006;2023-09-30T11:39:22;0.00;;;0.00;;
5521;SDS011;2783;48.730;8.006;2023-09-30T11:44:17;0.00;;;0.00;;
5521;SDS011;2783;48.730;8.006;2023-09-30T11:46:50;0.00;;;0.00;;
5521;SDS011;2783;48.730;8.006;2023-09-30T11:49:27;0.00;;;0.00;;
5521;SDS011;2783;48.730;8.006;2023-09-30T11:51:53;0.00;;;0.00;;
5521;SDS011;2783;48.730;8.006;2023-09-30T11:54:19;0.00;;;0.00;;
5521;SDS011;2783;48.730;8.006;2023-09-30T11:56:47;0.00;;;0.00;;
5521;SDS011;2783;48.730;8.006;2023-09-30T11:59:12;0.00;;;0.00;;
5521;SDS011;2783;48.730;8.006;2023-09-30T12:01:38;0.00;;;0.00;;
5521;SDS011;2783;48.730;8.006;2023-09-30T12:04:03;0.00;;;0.00;;
5521;SDS011;2783;48.730;8.006;2023-09-30T12:06:29;0.00;;;0.00;;
5521;SDS011;2783;48.730;8.006;2023-09-30T12:08:55;0.00;;;0.00;;
5521;SDS011;2783;48.730;8.006;2023-09-30T12:11:20;0.00;;;0.00;;
5521;SDS011;2783;48.730;8.006;2023-09-30T12:13:49;0.00;;;0.00;;
5521;SDS011;2783;48.730;8.006;2023-09-30T12:16:15;0.00;;;0.00;;
5521;SDS011;2783;48.730;8.006;2023-09-30T12:18:41;0.00;;;0.00;;
5521;SDS011;2783;48.730;8.006;2023-09-30T12:21:09;0.00;;;0.00;;
5521;SDS011;2783;48.730;8.006;2023-09-30T12:23:36;0.00;;;0.00;;
5521;SDS011;2783;48.730;8.006;2023-09-30T12:26:02;0.00;;;0.00;;
5521;SDS011;2783;48.730;8.006;2023-09-30T12:28:31;0.00;;;0.00;;
5521;SDS011;2783;48.730;8.006;2023-09-30T12:30:58;0.00;;;0.00;;
5521;SDS011;2783;48.730;8.006;2023-09-30T12:33:24;0.00;;;0.00;;
5521;SDS011;2783;48.730;8.006;2023-09-30T12:35:49;0.00;;;0.00;;
5521;SDS011;2783;48.730;8.006;2023-09-30T12:38:16;0.00;;;0.00;;
5521;SDS011;2783;48.730;8.006;2023-09-30T12:40:42;0.00;;;0.00;;
5521;SDS011;2783;48.730;8.006;2023-09-30T12:43:08;0.00;;;0.00;;
5521;SDS011;2783;48.730;8.006;2023-09-30T12:45:34;0.00;;;0.00;;
5521;SDS011;2783;48.730;8.006;2023-09-30T12:47:59;0.00;;;0.00;;
5521;SDS011;2783;48.730;8.006;2023-09-30T12:50:25;0.00;;;0.00;;
5521;SDS011;2783;48.730;8.006;2023-09-30T12:52:50;0.00;;;0.00;;
5521;SDS011;2783;48.730;8.006;2023-09-30T12:55:15;0.00;;;0.00;;
5521;SDS011;2783;48.730;8.006;2023-09-30T12:57:41;0.00;;;0.00;;
5521;SDS011;2783;48.730;8.006;2023-09-30T13:00:06;0.00;;;0.00;;
5521;SDS011;2783;48.730;8.006;2023-09-30T13:02:34;0.00;;;0.00;;
5521;SDS011;2783;48.730;8.006;2023-09-30T13:05:00;0.00;;;0.00;;
5521;SDS011;2783;48.730;8.006;2023-09-30T13:07:25;0.00;;;0.00;;
5521;SDS011;2783;48.730;8.006;2023-09-30T13:09:51;0.00;;;0.00;;
5521;SDS011;2783;48.730;8.006;2023-09-30T13:12:16;0.00;;;0.00;;
5521;SDS011;2783;48.730;8.006;2023-09-30T13:14:42;0.00;;;0.00;;
5521;SDS011;2783;48.730;8.006;2023-09-30T13:17:07;0.00;;;0.00;;
5521;SDS011;2783;48.730;8.006;2023-09-30T13:19:33;0.00;;;0.00;;
5521;SDS011;2783;48.730;8.006;2023-09-30T13:21:58;0.00;;;0.00;;
5521;SDS011;2783;48.730;8.006;2023-09-30T13:24:23;0.00;;;0.00;;
5521;SDS011;2783;48.730;8.006;2023-09-30T13:26:49;0.00;;;0.00;;
5521;SDS011;2783;48.730;8.006;2023-09-30T13:29:17;0.00;;;0.00;;
5521;SDS011;2783;48.730;8.006;2023-09-30T13:31:43;0.00;;;0.00;;
5521;SDS011;2783;48.730;8.006;2023-09-30T13:34:10;0.00;;;0.00;;
5521;SDS011;2783;48.730;8.006;2023-09-30T13:36:37;0.00;;;0.00;;
5521;SDS011;2783;48.730;8.006;2023-09-30T13:39:03;0.00;;;0.00;;
5521;SDS011;2783;48.730;8.006;2023-09-30T13:41:33;0.00;;;0.00;;
5521;SDS011;2783;48.730;8.006;2023-09-30T13:43:59;0.00;;;0.00;;
5521;SDS011;2783;48.730;8.006;2023-09-30T13:46:28;0.00;;;0.00;;
5521;SDS011;2783;48.730;8.006;2023-09-30T13:48:55;0.00;;;0.00;;
5521;SDS011;2783;48.730;8.006;2023-09-30T13:51:21;0.00;;;0.00;;
5521;SDS011;2783;48.730;8.006;2023-09-30T13:53:47;0.00;;;0.00;;
5521;SDS011;2783;48.730;8.006;2023-09-30T13:56:13;0.00;;;0.00;;
5521;SDS011;2783;48.730;8.006;2023-09-30T13:58:38;0.00;;;0.00;;
5521;SDS011;2783;48.730;8.006;2023-09-30T14:01:07;0.00;;;0.00;;
5521;SDS011;2783;48.730;8.006;2023-09-30T14:03:32;0.00;;;0.00;;
5521;SDS011;2783;48.730;8.006;2023-09-30T14:05:58;0.00;;;0.00;;
5521;SDS011;2783;48.730;8.006;2023-09-30T14:08:24;0.00;;;0.00;;
5521;SDS011;2783;48.730;8.006;2023-09-30T14:10:50;0.03;;;0.03;;
5521;SDS011;2783;48.730;8.006;2023-09-30T14:13:16;0.00;;;0.00;;
5521;SDS011;2783;48.730;8.006;2023-09-30T14:15:42;0.00;;;0.00;;
5521;SDS011;2783;48.730;8.006;2023-09-30T14:18:07;0.00;;;0.00;;
5521;SDS011;2783;48.730;8.006;2023-09-30T14:20:33;0.00;;;0.00;;
5521;SDS011;2783;48.730;8.006;2023-09-30T14:22:59;0.00;;;0.00;;
5521;SDS011;2783;48.730;8.006;2023-09-30T14:25:24;0.00;;;0.00;;
5521;SDS011;2783;48.730;8.006;2023-09-30T14:27:50;0.00;;;0.00;;
5521;SDS011;2783;48.730;8.006;2023-09-30T14:30:15;0.00;;;0.00;;
5521;SDS011;2783;48.730;8.006;2023-09-30T14:32:41;0.10;;;0.10;;
5521;SDS011;2783;48.730;8.006;2023-09-30T14:35:07;0.00;;;0.00;;
5521;SDS011;2783;48.730;8.006;2023-09-30T14:37:34;0.00;;;0.00;;
5521;SDS011;2783;48.730;8.006;2023-09-30T14:40:00;0.08;;;0.08;;
5521;SDS011;2783;48.730;8.006;2023-09-30T14:42:25;0.00;;;0.00;;
5521;SDS011;2783;48.730;8.006;2023-09-30T14:44:50;0.10;;;0.10;;
5521;SDS011;2783;48.730;8.006;2023-09-30T14:47:16;0.10;;;0.10;;
5521;SDS011;2783;48.730;8.006;2023-09-30T14:49:42;0.10;;;0.10;;
5521;SDS011;2783;48.730;8.006;2023-09-30T14:52:07;0.00;;;0.00;;
5521;SDS011;2783;48.730;8.006;2023-09-30T14:54:34;0.10;;;0.10;;
5521;SDS011;2783;48.730;8.006;2023-09-30T14:57:00;0.00;;;0.00;;
5521;SDS011;2783;48.730;8.006;2023-09-30T14:59:26;0.00;;;0.00;;
5521;SDS011;2783;48.730;8.006;2023-09-30T15:01:51;0.10;;;0.10;;
5521;SDS011;2783;48.730;8.006;2023-09-30T15:04:18;0.10;;;0.10;;
5521;SDS011;2783;48.730;8.006;2023-09-30T15:06:44;0.00;;;0.00;;
5521;SDS011;2783;48.730;8.006;2023-09-30T15:09:11;0.10;;;0.10;;
5521;SDS011;2783;48.730;8.006;2023-09-30T15:11:37;0.10;;;0.10;;
5521;SDS011;2783;48.730;8.006;2023-09-30T15:14:03;0.10;;;0.10;;
5521;SDS011;2783;48.730;8.006;2023-09-30T15:16:30;0.08;;;0.08;;
5521;SDS011;2783;48.730;8.006;2023-09-30T15:18:56;0.00;;;0.00;;
5521;SDS011;2783;48.730;8.006;2023-09-30T15:21:22;0.10;;;0.10;;
5521;SDS011;2783;48.730;8.006;2023-09-30T15:23:47;0.10;;;0.10;;
5521;SDS011;2783;48.730;8.006;2023-09-30T15:26:12;0.10;;;0.10;;
5521;SDS011;2783;48.730;8.006;2023-09-30T15:28:38;0.10;;;0.10;;
5521;SDS011;2783;48.730;8.006;2023-09-30T15:31:04;0.03;;;0.03;;
5521;SDS011;2783;48.730;8.006;2023-09-30T15:33:30;0.10;;;0.10;;